Zapata, Texas
Current Conditions -  °F | °C
As of 10:41 AM on Thursday 30 Oct 2014 (Local Time) from MMNL Reporting Station
Clear Clear  
Wind Chill: 77°   Ceiling: Unl
Heat Index: 79°   Visibility: 10mi
Dew Point: 66°   Wind: 0mph
Humidity: 69%   Direction: NA
Pressure: 30.12"   Gusts: NA
Location:  26.91°N, 99.27°W
Report Text: MMNL 301541Z 00000KT 10SM SKC 25/19 A3012
Loading
Personal Weather Stations






























Interactive Weather Map New forecast layout! Learn more

10-Day Weather Forecast

Advertisements
Track Severe Weather on mobile